sensor_id;sensor_type;location;lat;lon;timestamp;P1;durP1;ratioP1;P2;durP2;ratioP2
42260;SDS011;27926;48.062;7.474;2023-04-24T00:01:33;2.53;;;1.35;;
42260;SDS011;27926;48.062;7.474;2023-04-24T00:04:00;2.38;;;1.10;;
42260;SDS011;27926;48.062;7.474;2023-04-24T00:06:25;3.80;;;1.45;;
42260;SDS011;27926;48.062;7.474;2023-04-24T00:08:57;3.28;;;0.80;;
42260;SDS011;27926;48.062;7.474;2023-04-24T00:11:21;2.17;;;1.02;;
42260;SDS011;27926;48.062;7.474;2023-04-24T00:13:46;3.50;;;1.10;;
42260;SDS011;27926;48.062;7.474;2023-04-24T00:16:10;3.10;;;1.13;;
42260;SDS011;27926;48.062;7.474;2023-04-24T00:18:35;11.50;;;0.90;;
42260;SDS011;27926;48.062;7.474;2023-04-24T00:20:59;3.30;;;1.00;;
42260;SDS011;27926;48.062;7.474;2023-04-24T00:23:24;3.22;;;1.00;;
42260;SDS011;27926;48.062;7.474;2023-04-24T00:25:49;0.65;;;0.65;;
42260;SDS011;27926;48.062;7.474;2023-04-24T00:28:13;4.18;;;1.02;;
42260;SDS011;27926;48.062;7.474;2023-04-24T00:30:38;1.75;;;0.80;;
42260;SDS011;27926;48.062;7.474;2023-04-24T00:33:02;5.65;;;1.17;;
42260;SDS011;27926;48.062;7.474;2023-04-24T00:35:27;1.15;;;0.70;;
42260;SDS011;27926;48.062;7.474;2023-04-24T00:37:52;1.27;;;0.73;;
42260;SDS011;27926;48.062;7.474;2023-04-24T00:40:16;1.55;;;0.60;;
42260;SDS011;27926;48.062;7.474;2023-04-24T00:42:41;1.00;;;0.75;;
42260;SDS011;27926;48.062;7.474;2023-04-24T00:45:07;1.75;;;0.80;;
42260;SDS011;27926;48.062;7.474;2023-04-24T00:47:32;2.15;;;0.80;;
42260;SDS011;27926;48.062;7.474;2023-04-24T00:49:57;2.05;;;1.05;;
42260;SDS011;27926;48.062;7.474;2023-04-24T00:52:22;5.50;;;0.82;;
42260;SDS011;27926;48.062;7.474;2023-04-24T00:57:12;4.85;;;1.10;;
42260;SDS011;27926;48.062;7.474;2023-04-24T00:59:39;4.85;;;0.60;;
42260;SDS011;27926;48.062;7.474;2023-04-24T01:02:05;3.30;;;0.80;;
42260;SDS011;27926;48.062;7.474;2023-04-24T01:04:29;2.97;;;0.70;;
42260;SDS011;27926;48.062;7.474;2023-04-24T01:06:54;0.93;;;0.65;;
42260;SDS011;27926;48.062;7.474;2023-04-24T01:09:20;4.80;;;1.00;;
42260;SDS011;27926;48.062;7.474;2023-04-24T01:11:47;2.90;;;0.75;;
42260;SDS011;27926;48.062;7.474;2023-04-24T01:14:11;4.13;;;0.68;;
42260;SDS011;27926;48.062;7.474;2023-04-24T01:16:36;2.60;;;0.68;;
42260;SDS011;27926;48.062;7.474;2023-04-24T01:19:02;3.97;;;0.95;;
42260;SDS011;27926;48.062;7.474;2023-04-24T01:21:26;5.57;;;0.77;;
42260;SDS011;27926;48.062;7.474;2023-04-24T01:23:53;1.48;;;0.40;;
42260;SDS011;27926;48.062;7.474;2023-04-24T01:26:19;5.07;;;0.70;;
42260;SDS011;27926;48.062;7.474;2023-04-24T01:28:44;5.38;;;0.77;;
42260;SDS011;27926;48.062;7.474;2023-04-24T01:31:08;1.13;;;0.60;;
42260;SDS011;27926;48.062;7.474;2023-04-24T01:33:33;4.35;;;0.57;;
42260;SDS011;27926;48.062;7.474;2023-04-24T01:35:58;3.40;;;0.68;;
42260;SDS011;27926;48.062;7.474;2023-04-24T01:38:23;2.03;;;0.50;;
42260;SDS011;27926;48.062;7.474;2023-04-24T01:40:49;3.42;;;1.15;;
42260;SDS011;27926;48.062;7.474;2023-04-24T01:43:14;0.90;;;0.40;;
42260;SDS011;27926;48.062;7.474;2023-04-24T01:45:40;5.38;;;0.90;;
42260;SDS011;27926;48.062;7.474;2023-04-24T01:48:05;2.70;;;0.60;;
42260;SDS011;27926;48.062;7.474;2023-04-24T01:50:29;4.25;;;0.82;;
42260;SDS011;27926;48.062;7.474;2023-04-24T01:52:54;3.42;;;0.60;;
42260;SDS011;27926;48.062;7.474;2023-04-24T01:55:19;1.65;;;0.40;;
42260;SDS011;27926;48.062;7.474;2023-04-24T01:57:43;3.45;;;0.50;;
42260;SDS011;27926;48.062;7.474;2023-04-24T02:00:08;1.63;;;0.38;;
42260;SDS011;27926;48.062;7.474;2023-04-24T02:02:35;1.70;;;0.60;;
42260;SDS011;27926;48.062;7.474;2023-04-24T02:04:59;2.75;;;0.63;;
42260;SDS011;27926;48.062;7.474;2023-04-24T02:07:24;4.10;;;0.70;;
42260;SDS011;27926;48.062;7.474;2023-04-24T02:09:49;3.88;;;0.75;;
42260;SDS011;27926;48.062;7.474;2023-04-24T02:12:16;4.65;;;0.65;;
42260;SDS011;27926;48.062;7.474;2023-04-24T02:14:41;2.30;;;0.90;;
42260;SDS011;27926;48.062;7.474;2023-04-24T02:17:06;3.50;;;0.60;;
42260;SDS011;27926;48.062;7.474;2023-04-24T02:19:32;3.38;;;0.98;;
42260;SDS011;27926;48.062;7.474;2023-04-24T02:21:56;2.05;;;0.60;;
42260;SDS011;27926;48.062;7.474;2023-04-24T02:24:21;1.50;;;0.60;;
42260;SDS011;27926;48.062;7.474;2023-04-24T02:26:45;2.05;;;0.68;;
42260;SDS011;27926;48.062;7.474;2023-04-24T02:29:10;3.28;;;0.60;;
42260;SDS011;27926;48.062;7.474;2023-04-24T02:31:35;3.67;;;1.73;;
42260;SDS011;27926;48.062;7.474;2023-04-24T02:33:59;1.13;;;0.50;;
42260;SDS011;27926;48.062;7.474;2023-04-24T02:36:24;1.13;;;0.70;;
42260;SDS011;27926;48.062;7.474;2023-04-24T02:38:49;4.25;;;0.50;;
42260;SDS011;27926;48.062;7.474;2023-04-24T02:41:13;1.58;;;0.73;;
42260;SDS011;27926;48.062;7.474;2023-04-24T02:43:38;3.60;;;0.65;;
42260;SDS011;27926;48.062;7.474;2023-04-24T02:46:03;3.30;;;0.63;;
42260;SDS011;27926;48.062;7.474;2023-04-24T02:48:27;4.75;;;1.35;;
42260;SDS011;27926;48.062;7.474;2023-04-24T02:50:52;2.58;;;0.47;;
42260;SDS011;27926;48.062;7.474;2023-04-24T02:53:17;1.63;;;0.73;;
42260;SDS011;27926;48.062;7.474;2023-04-24T02:55:41;3.05;;;0.98;;
42260;SDS011;27926;48.062;7.474;2023-04-24T02:58:06;4.57;;;0.50;;
42260;SDS011;27926;48.062;7.474;2023-04-24T03:00:30;1.10;;;0.80;;
42260;SDS011;27926;48.062;7.474;2023-04-24T03:02:55;2.22;;;0.50;;
42260;SDS011;27926;48.062;7.474;2023-04-24T03:05:20;1.60;;;0.65;;
42260;SDS011;27926;48.062;7.474;2023-04-24T03:07:45;7.07;;;0.93;;
42260;SDS011;27926;48.062;7.474;2023-04-24T03:10:10;3.35;;;1.33;;
42260;SDS011;27926;48.062;7.474;2023-04-24T03:12:34;6.63;;;0.77;;
42260;SDS011;27926;48.062;7.474;2023-04-24T03:14:59;1.63;;;0.90;;
42260;SDS011;27926;48.062;7.474;2023-04-24T03:17:24;1.80;;;0.80;;
42260;SDS011;27926;48.062;7.474;2023-04-24T03:19:48;6.13;;;2.22;;
42260;SDS011;27926;48.062;7.474;2023-04-24T03:22:13;5.50;;;0.95;;
42260;SDS011;27926;48.062;7.474;2023-04-24T03:24:38;5.07;;;0.80;;
42260;SDS011;27926;48.062;7.474;2023-04-24T03:27:02;1.42;;;0.70;;
42260;SDS011;27926;48.062;7.474;2023-04-24T03:29:27;2.47;;;0.90;;
42260;SDS011;27926;48.062;7.474;2023-04-24T03:31:51;2.88;;;0.80;;
42260;SDS011;27926;48.062;7.474;2023-04-24T03:34:16;4.70;;;1.08;;
42260;SDS011;27926;48.062;7.474;2023-04-24T03:36:41;6.80;;;0.90;;
42260;SDS011;27926;48.062;7.474;2023-04-24T03:39:05;2.65;;;1.00;;
42260;SDS011;27926;48.062;7.474;2023-04-24T03:41:33;2.60;;;1.27;;
42260;SDS011;27926;48.062;7.474;2023-04-24T03:43:57;6.75;;;1.00;;
42260;SDS011;27926;48.062;7.474;2023-04-24T03:46:22;4.10;;;0.73;;
42260;SDS011;27926;48.062;7.474;2023-04-24T03:48:47;5.18;;;0.98;;
42260;SDS011;27926;48.062;7.474;2023-04-24T03:51:11;7.40;;;0.90;;
42260;SDS011;27926;48.062;7.474;2023-04-24T03:53:36;1.88;;;0.70;;
42260;SDS011;27926;48.062;7.474;2023-04-24T03:56:00;7.57;;;0.90;;
42260;SDS011;27926;48.062;7.474;2023-04-24T03:58:25;7.15;;;1.35;;
42260;SDS011;27926;48.062;7.474;2023-04-24T04:00:50;1.88;;;0.73;;
42260;SDS011;27926;48.062;7.474;2023-04-24T04:03:15;3.60;;;0.80;;
42260;SDS011;27926;48.062;7.474;2023-04-24T04:05:40;3.85;;;0.50;;
42260;SDS011;27926;48.062;7.474;2023-04-24T04:08:05;1.58;;;0.63;;
42260;SDS011;27926;48.062;7.474;2023-04-24T04:10:29;2.88;;;0.70;;
42260;SDS011;27926;48.062;7.474;2023-04-24T04:12:54;4.25;;;0.73;;
42260;SDS011;27926;48.062;7.474;2023-04-24T04:15:18;4.03;;;0.77;;
42260;SDS011;27926;48.062;7.474;2023-04-24T04:17:43;5.85;;;1.27;;
42260;SDS011;27926;48.062;7.474;2023-04-24T04:20:09;10.95;;;0.90;;
42260;SDS011;27926;48.062;7.474;2023-04-24T04:22:35;1.90;;;0.90;;
42260;SDS011;27926;48.062;7.474;2023-04-24T04:25:00;2.08;;;0.82;;
42260;SDS011;27926;48.062;7.474;2023-04-24T04:27:24;5.40;;;0.95;;
42260;SDS011;27926;48.062;7.474;2023-04-24T04:29:53;2.60;;;0.90;;
42260;SDS011;27926;48.062;7.474;2023-04-24T04:32:17;5.25;;;0.93;;
42260;SDS011;27926;48.062;7.474;2023-04-24T04:34:42;2.35;;;0.90;;
42260;SDS011;27926;48.062;7.474;2023-04-24T04:37:09;0.75;;;0.63;;
42260;SDS011;27926;48.062;7.474;2023-04-24T04:39:34;3.55;;;0.80;;
42260;SDS011;27926;48.062;7.474;2023-04-24T04:41:59;4.82;;;0.98;;
42260;SDS011;27926;48.062;7.474;2023-04-24T04:44:24;0.73;;;0.70;;
42260;SDS011;27926;48.062;7.474;2023-04-24T04:46:48;3.47;;;0.63;;
42260;SDS011;27926;48.062;7.474;2023-04-24T04:49:14;1.70;;;0.70;;
42260;SDS011;27926;48.062;7.474;2023-04-24T04:51:40;1.67;;;0.95;;
42260;SDS011;27926;48.062;7.474;2023-04-24T04:54:05;1.15;;;0.80;;
42260;SDS011;27926;48.062;7.474;2023-04-24T04:56:29;2.70;;;0.70;;
42260;SDS011;27926;48.062;7.474;2023-04-24T04:58:54;0.60;;;0.60;;
42260;SDS011;27926;48.062;7.474;2023-04-24T05:01:19;2.45;;;0.68;;
42260;SDS011;27926;48.062;7.474;2023-04-24T05:03:46;1.00;;;0.57;;
42260;SDS011;27926;48.062;7.474;2023-04-24T05:06:11;3.75;;;0.70;;
42260;SDS011;27926;48.062;7.474;2023-04-24T05:08:35;1.45;;;0.80;;
42260;SDS011;27926;48.062;7.474;2023-04-24T05:11:00;4.57;;;1.38;;
42260;SDS011;27926;48.062;7.474;2023-04-24T05:13:25;4.30;;;0.98;;
42260;SDS011;27926;48.062;7.474;2023-04-24T05:15:49;1.63;;;0.95;;
42260;SDS011;27926;48.062;7.474;2023-04-24T05:18:14;5.60;;;1.75;;
42260;SDS011;27926;48.062;7.474;2023-04-24T05:20:39;4.10;;;1.57;;
42260;SDS011;27926;48.062;7.474;2023-04-24T05:23:04;8.07;;;1.40;;
42260;SDS011;27926;48.062;7.474;2023-04-24T05:25:28;1.45;;;1.10;;
42260;SDS011;27926;48.062;7.474;2023-04-24T05:27:56;9.48;;;2.40;;
42260;SDS011;27926;48.062;7.474;2023-04-24T05:30:20;5.38;;;1.63;;
42260;SDS011;27926;48.062;7.474;2023-04-24T05:32:45;3.97;;;1.50;;
42260;SDS011;27926;48.062;7.474;2023-04-24T05:35:10;9.00;;;1.92;;
42260;SDS011;27926;48.062;7.474;2023-04-24T05:37:34;5.43;;;1.48;;
42260;SDS011;27926;48.062;7.474;2023-04-24T05:39:59;6.22;;;2.13;;
42260;SDS011;27926;48.062;7.474;2023-04-24T05:42:23;8.93;;;1.88;;
42260;SDS011;27926;48.062;7.474;2023-04-24T05:44:48;3.13;;;1.20;;
42260;SDS011;27926;48.062;7.474;2023-04-24T05:47:13;4.40;;;1.63;;
42260;SDS011;27926;48.062;7.474;2023-04-24T05:49:38;3.97;;;1.65;;
42260;SDS011;27926;48.062;7.474;2023-04-24T05:52:02;10.10;;;2.10;;
42260;SDS011;27926;48.062;7.474;2023-04-24T05:54:29;9.73;;;3.22;;
42260;SDS011;27926;48.062;7.474;2023-04-24T05:56:54;10.13;;;2.05;;
42260;SDS011;27926;48.062;7.474;2023-04-24T05:59:19;6.95;;;2.25;;
42260;SDS011;27926;48.062;7.474;2023-04-24T06:01:43;7.03;;;2.30;;
42260;SDS011;27926;48.062;7.474;2023-04-24T06:04:08;6.15;;;2.38;;
42260;SDS011;27926;48.062;7.474;2023-04-24T06:06:33;3.40;;;1.90;;
42260;SDS011;27926;48.062;7.474;2023-04-24T06:08:59;2.20;;;1.67;;
42260;SDS011;27926;48.062;7.474;2023-04-24T06:11:23;3.75;;;1.75;;
42260;SDS011;27926;48.062;7.474;2023-04-24T06:13:48;6.22;;;1.70;;
42260;SDS011;27926;48.062;7.474;2023-04-24T06:16:13;4.30;;;1.98;;
42260;SDS011;27926;48.062;7.474;2023-04-24T06:18:38;3.28;;;1.90;;
42260;SDS011;27926;48.062;7.474;2023-04-24T06:21:03;2.00;;;1.70;;
42260;SDS011;27926;48.062;7.474;2023-04-24T06:23:28;6.53;;;2.70;;
42260;SDS011;27926;48.062;7.474;2023-04-24T06:25:53;2.75;;;2.13;;
42260;SDS011;27926;48.062;7.474;2023-04-24T06:28:17;4.07;;;1.77;;
42260;SDS011;27926;48.062;7.474;2023-04-24T06:30:42;3.90;;;2.28;;
42260;SDS011;27926;48.062;7.474;2023-04-24T06:33:07;8.73;;;3.53;;
42260;SDS011;27926;48.062;7.474;2023-04-24T06:35:32;4.05;;;2.22;;
42260;SDS011;27926;48.062;7.474;2023-04-24T06:37:56;6.68;;;1.85;;
42260;SDS011;27926;48.062;7.474;2023-04-24T06:40:21;6.22;;;2.08;;
42260;SDS011;27926;48.062;7.474;2023-04-24T06:42:45;4.88;;;1.30;;
42260;SDS011;27926;48.062;7.474;2023-04-24T06:45:10;5.72;;;1.25;;
42260;SDS011;27926;48.062;7.474;2023-04-24T06:47:35;2.45;;;1.38;;
42260;SDS011;27926;48.062;7.474;2023-04-24T06:49:59;4.95;;;1.00;;
42260;SDS011;27926;48.062;7.474;2023-04-24T06:52:24;5.20;;;1.45;;
42260;SDS011;27926;48.062;7.474;2023-04-24T06:54:49;2.08;;;1.02;;
42260;SDS011;27926;48.062;7.474;2023-04-24T06:57:13;7.22;;;1.80;;
42260;SDS011;27926;48.062;7.474;2023-04-24T06:59:40;2.17;;;0.98;;
42260;SDS011;27926;48.062;7.474;2023-04-24T07:02:04;3.72;;;1.02;;
42260;SDS011;27926;48.062;7.474;2023-04-24T07:04:30;4.60;;;1.20;;
42260;SDS011;27926;48.062;7.474;2023-04-24T07:06:54;5.10;;;1.58;;
42260;SDS011;27926;48.062;7.474;2023-04-24T07:09:22;4.30;;;1.27;;
42260;SDS011;27926;48.062;7.474;2023-04-24T07:14:12;4.45;;;1.23;;
42260;SDS011;27926;48.062;7.474;2023-04-24T07:16:37;7.63;;;1.75;;
42260;SDS011;27926;48.062;7.474;2023-04-24T07:19:02;1.65;;;1.05;;
42260;SDS011;27926;48.062;7.474;2023-04-24T07:21:26;8.88;;;1.48;;
42260;SDS011;27926;48.062;7.474;2023-04-24T07:23:51;5.38;;;1.20;;
42260;SDS011;27926;48.062;7.474;2023-04-24T07:26:16;3.25;;;1.20;;
42260;SDS011;27926;48.062;7.474;2023-04-24T07:28:41;4.82;;;1.40;;
42260;SDS011;27926;48.062;7.474;2023-04-24T07:31:05;5.05;;;1.40;;
42260;SDS011;27926;48.062;7.474;2023-04-24T07:33:30;6.53;;;1.63;;
42260;SDS011;27926;48.062;7.474;2023-04-24T07:35:55;3.95;;;1.27;;
42260;SDS011;27926;48.062;7.474;2023-04-24T07:38:20;3.80;;;1.57;;
42260;SDS011;27926;48.062;7.474;2023-04-24T07:40:46;4.85;;;1.38;;
42260;SDS011;27926;48.062;7.474;2023-04-24T07:43:13;3.20;;;1.70;;
42260;SDS011;27926;48.062;7.474;2023-04-24T07:45:37;3.45;;;1.60;;
42260;SDS011;27926;48.062;7.474;2023-04-24T07:48:03;2.45;;;1.23;;
42260;SDS011;27926;48.062;7.474;2023-04-24T07:50:28;2.05;;;1.00;;
42260;SDS011;27926;48.062;7.474;2023-04-24T07:52:53;4.53;;;1.10;;
42260;SDS011;27926;48.062;7.474;2023-04-24T07:55:17;10.15;;;1.00;;
42260;SDS011;27926;48.062;7.474;2023-04-24T07:57:43;5.03;;;1.50;;
42260;SDS011;27926;48.062;7.474;2023-04-24T08:00:08;2.58;;;1.17;;
42260;SDS011;27926;48.062;7.474;2023-04-24T08:02:33;8.90;;;1.27;;
42260;SDS011;27926;48.062;7.474;2023-04-24T08:04:57;3.13;;;1.27;;
42260;SDS011;27926;48.062;7.474;2023-04-24T08:07:22;2.78;;;1.00;;
42260;SDS011;27926;48.062;7.474;2023-04-24T08:09:47;1.60;;;0.82;;
42260;SDS011;27926;48.062;7.474;2023-04-24T08:12:12;7.63;;;1.45;;
42260;SDS011;27926;48.062;7.474;2023-04-24T08:14:37;3.40;;;1.10;;
42260;SDS011;27926;48.062;7.474;2023-04-24T08:17:01;2.38;;;1.17;;
42260;SDS011;27926;48.062;7.474;2023-04-24T08:19:27;2.33;;;1.25;;
42260;SDS011;27926;48.062;7.474;2023-04-24T08:21:51;4.20;;;1.10;;
42260;SDS011;27926;48.062;7.474;2023-04-24T08:24:16;2.33;;;1.00;;
42260;SDS011;27926;48.062;7.474;2023-04-24T08:26:41;6.70;;;1.52;;
42260;SDS011;27926;48.062;7.474;2023-04-24T08:29:05;5.22;;;1.40;;
42260;SDS011;27926;48.062;7.474;2023-04-24T08:31:30;3.22;;;0.85;;
42260;SDS011;27926;48.062;7.474;2023-04-24T08:33:55;3.08;;;0.90;;
42260;SDS011;27926;48.062;7.474;2023-04-24T08:36:19;3.78;;;1.00;;
42260;SDS011;27926;48.062;7.474;2023-04-24T08:38:44;7.38;;;0.82;;
42260;SDS011;27926;48.062;7.474;2023-04-24T08:41:10;1.50;;;0.85;;
42260;SDS011;27926;48.062;7.474;2023-04-24T08:43:35;5.70;;;1.50;;
42260;SDS011;27926;48.062;7.474;2023-04-24T08:46:03;4.75;;;0.82;;
42260;SDS011;27926;48.062;7.474;2023-04-24T08:48:28;3.10;;;1.25;;
42260;SDS011;27926;48.062;7.474;2023-04-24T08:50:53;3.97;;;0.82;;
42260;SDS011;27926;48.062;7.474;2023-04-24T08:53:18;1.30;;;0.60;;
42260;SDS011;27926;48.062;7.474;2023-04-24T08:55:43;4.85;;;0.82;;
42260;SDS011;27926;48.062;7.474;2023-04-24T08:58:12;2.90;;;0.90;;
42260;SDS011;27926;48.062;7.474;2023-04-24T09:00:37;5.00;;;0.70;;
42260;SDS011;27926;48.062;7.474;2023-04-24T09:05:28;1.90;;;0.73;;
42260;SDS011;27926;48.062;7.474;2023-04-24T09:07:55;2.05;;;0.95;;
42260;SDS011;27926;48.062;7.474;2023-04-24T09:10:21;2.05;;;0.60;;
42260;SDS011;27926;48.062;7.474;2023-04-24T09:12:47;3.30;;;0.82;;
42260;SDS011;27926;48.062;7.474;2023-04-24T09:15:11;2.95;;;0.95;;
42260;SDS011;27926;48.062;7.474;2023-04-24T09:17:36;4.78;;;1.00;;
42260;SDS011;27926;48.062;7.474;2023-04-24T09:20:01;1.97;;;0.50;;
42260;SDS011;27926;48.062;7.474;2023-04-24T09:22:28;0.70;;;0.70;;
42260;SDS011;27926;48.062;7.474;2023-04-24T09:25:03;5.13;;;1.00;;
42260;SDS011;27926;48.062;7.474;2023-04-24T09:27:33;3.40;;;0.80;;
42260;SDS011;27926;48.062;7.474;2023-04-24T09:29:58;4.88;;;0.60;;
42260;SDS011;27926;48.062;7.474;2023-04-24T09:32:23;3.40;;;0.73;;
42260;SDS011;27926;48.062;7.474;2023-04-24T09:35:06;3.33;;;0.68;;
42260;SDS011;27926;48.062;7.474;2023-04-24T09:37:40;7.25;;;0.80;;
42260;SDS011;27926;48.062;7.474;2023-04-24T09:42:54;2.85;;;0.77;;
42260;SDS011;27926;48.062;7.474;2023-04-24T09:45:27;1.42;;;0.60;;
42260;SDS011;27926;48.062;7.474;2023-04-24T09:48:04;4.05;;;0.73;;
42260;SDS011;27926;48.062;7.474;2023-04-24T09:50:30;4.88;;;0.57;;
42260;SDS011;27926;48.062;7.474;2023-04-24T09:52:56;3.22;;;0.50;;
42260;SDS011;27926;48.062;7.474;2023-04-24T09:55:22;3.83;;;0.40;;
42260;SDS011;27926;48.062;7.474;2023-04-24T09:57:49;0.57;;;0.45;;
42260;SDS011;27926;48.062;7.474;2023-04-24T10:00:21;2.95;;;0.70;;
42260;SDS011;27926;48.062;7.474;2023-04-24T10:02:49;2.05;;;0.60;;
42260;SDS011;27926;48.062;7.474;2023-04-24T10:05:15;0.45;;;0.45;;
42260;SDS011;27926;48.062;7.474;2023-04-24T10:07:39;2.00;;;0.90;;
42260;SDS011;27926;48.062;7.474;2023-04-24T10:10:04;3.42;;;0.40;;
42260;SDS011;27926;48.062;7.474;2023-04-24T10:12:30;1.17;;;0.60;;
42260;SDS011;27926;48.062;7.474;2023-04-24T10:14:54;1.33;;;0.55;;
42260;SDS011;27926;48.062;7.474;2023-04-24T10:17:20;1.58;;;0.60;;
42260;SDS011;27926;48.062;7.474;2023-04-24T10:19:45;6.60;;;0.70;;
42260;SDS011;27926;48.062;7.474;2023-04-24T10:22:11;1.17;;;0.60;;
42260;SDS011;27926;48.062;7.474;2023-04-24T10:24:36;1.52;;;0.45;;
42260;SDS011;27926;48.062;7.474;2023-04-24T10:27:02;5.63;;;0.60;;
42260;SDS011;27926;48.062;7.474;2023-04-24T10:29:28;2.15;;;0.82;;
42260;SDS011;27926;48.062;7.474;2023-04-24T10:31:55;1.50;;;0.65;;
42260;SDS011;27926;48.062;7.474;2023-04-24T10:34:20;3.25;;;0.60;;
42260;SDS011;27926;48.062;7.474;2023-04-24T10:36:47;1.35;;;0.40;;
42260;SDS011;27926;48.062;7.474;2023-04-24T10:39:15;2.00;;;0.75;;
42260;SDS011;27926;48.062;7.474;2023-04-24T10:41:41;0.60;;;0.40;;
42260;SDS011;27926;48.062;7.474;2023-04-24T10:46:33;2.15;;;0.40;;
42260;SDS011;27926;48.062;7.474;2023-04-24T10:48:58;3.13;;;0.52;;
42260;SDS011;27926;48.062;7.474;2023-04-24T10:51:43;2.47;;;0.50;;
42260;SDS011;27926;48.062;7.474;2023-04-24T10:55:12;2.72;;;0.73;;
42260;SDS011;27926;48.062;7.474;2023-04-24T10:59:42;1.50;;;0.60;;
42260;SDS011;27926;48.062;7.474;2023-04-24T11:02:07;1.40;;;0.57;;
42260;SDS011;27926;48.062;7.474;2023-04-24T11:04:32;1.83;;;0.65;;
42260;SDS011;27926;48.062;7.474;2023-04-24T11:06:57;0.50;;;0.50;;
42260;SDS011;27926;48.062;7.474;2023-04-24T11:09:22;0.40;;;0.40;;
42260;SDS011;27926;48.062;7.474;2023-04-24T11:11:50;1.45;;;0.40;;
42260;SDS011;27926;48.062;7.474;2023-04-24T11:14:14;6.90;;;0.80;;
42260;SDS011;27926;48.062;7.474;2023-04-24T11:16:43;1.65;;;0.52;;
42260;SDS011;27926;48.062;7.474;2023-04-24T11:22:01;1.40;;;0.30;;
42260;SDS011;27926;48.062;7.474;2023-04-24T11:29:45;2.45;;;1.30;;
42260;SDS011;27926;48.062;7.474;2023-04-24T11:34:51;2.10;;;0.68;;
42260;SDS011;27926;48.062;7.474;2023-04-24T11:37:26;1.55;;;0.65;;
42260;SDS011;27926;48.062;7.474;2023-04-24T11:39:58;2.28;;;1.23;;
42260;SDS011;27926;48.062;7.474;2023-04-24T11:42:23;6.13;;;1.70;;
42260;SDS011;27926;48.062;7.474;2023-04-24T11:44:49;2.47;;;0.93;;
42260;SDS011;27926;48.062;7.474;2023-04-24T11:47:16;0.55;;;0.45;;
42260;SDS011;27926;48.062;7.474;2023-04-24T11:49:40;5.05;;;0.88;;
42260;SDS011;27926;48.062;7.474;2023-04-24T11:52:05;7.07;;;1.10;;
42260;SDS011;27926;48.062;7.474;2023-04-24T11:54:30;0.43;;;0.43;;
42260;SDS011;27926;48.062;7.474;2023-04-24T11:56:55;3.50;;;1.35;;
42260;SDS011;27926;48.062;7.474;2023-04-24T11:59:20;6.35;;;0.63;;
42260;SDS011;27926;48.062;7.474;2023-04-24T12:01:45;1.45;;;0.65;;
42260;SDS011;27926;48.062;7.474;2023-04-24T12:04:10;1.77;;;0.82;;
42260;SDS011;27926;48.062;7.474;2023-04-24T12:06:35;0.73;;;0.73;;
42260;SDS011;27926;48.062;7.474;2023-04-24T12:09:00;1.30;;;0.63;;
42260;SDS011;27926;48.062;7.474;2023-04-24T12:11:25;2.08;;;0.73;;
42260;SDS011;27926;48.062;7.474;2023-04-24T12:13:49;4.60;;;0.75;;
42260;SDS011;27926;48.062;7.474;2023-04-24T12:16:14;1.33;;;0.70;;
42260;SDS011;27926;48.062;7.474;2023-04-24T12:18:42;0.65;;;0.65;;
42260;SDS011;27926;48.062;7.474;2023-04-24T12:21:21;4.28;;;0.70;;
42260;SDS011;27926;48.062;7.474;2023-04-24T12:23:46;3.60;;;0.73;;
42260;SDS011;27926;48.062;7.474;2023-04-24T12:26:12;1.15;;;0.65;;
42260;SDS011;27926;48.062;7.474;2023-04-24T12:28:41;0.43;;;0.43;;
42260;SDS011;27926;48.062;7.474;2023-04-24T12:31:06;0.40;;;0.40;;
42260;SDS011;27926;48.062;7.474;2023-04-24T12:33:34;4.53;;;1.88;;
42260;SDS011;27926;48.062;7.474;2023-04-24T12:36:00;3.95;;;0.75;;
42260;SDS011;27926;48.062;7.474;2023-04-24T12:38:25;0.40;;;0.40;;
42260;SDS011;27926;48.062;7.474;2023-04-24T12:43:31;3.33;;;0.90;;
42260;SDS011;27926;48.062;7.474;2023-04-24T12:45:56;0.88;;;0.50;;
42260;SDS011;27926;48.062;7.474;2023-04-24T12:48:21;2.60;;;0.52;;
42260;SDS011;27926;48.062;7.474;2023-04-24T12:50:46;5.60;;;0.50;;
42260;SDS011;27926;48.062;7.474;2023-04-24T12:53:10;2.47;;;0.68;;
42260;SDS011;27926;48.062;7.474;2023-04-24T12:55:35;2.53;;;0.80;;
42260;SDS011;27926;48.062;7.474;2023-04-24T12:58:01;0.50;;;0.50;;
42260;SDS011;27926;48.062;7.474;2023-04-24T13:00:27;2.85;;;1.10;;
42260;SDS011;27926;48.062;7.474;2023-04-24T13:02:51;1.23;;;0.63;;
42260;SDS011;27926;48.062;7.474;2023-04-24T13:05:16;5.30;;;1.40;;
42260;SDS011;27926;48.062;7.474;2023-04-24T13:07:41;2.63;;;0.80;;
42260;SDS011;27926;48.062;7.474;2023-04-24T13:10:08;1.10;;;0.90;;
42260;SDS011;27926;48.062;7.474;2023-04-24T13:12:34;3.77;;;1.00;;
42260;SDS011;27926;48.062;7.474;2023-04-24T13:14:59;3.58;;;1.45;;
42260;SDS011;27926;48.062;7.474;2023-04-24T13:17:24;1.65;;;1.08;;
42260;SDS011;27926;48.062;7.474;2023-04-24T13:19:49;3.47;;;1.00;;
42260;SDS011;27926;48.062;7.474;2023-04-24T13:22:15;1.40;;;0.85;;
42260;SDS011;27926;48.062;7.474;2023-04-24T13:24:41;2.50;;;1.05;;
42260;SDS011;27926;48.062;7.474;2023-04-24T13:27:06;3.58;;;0.93;;
42260;SDS011;27926;48.062;7.474;2023-04-24T13:29:31;2.55;;;0.80;;
42260;SDS011;27926;48.062;7.474;2023-04-24T13:31:55;4.72;;;1.10;;
42260;SDS011;27926;48.062;7.474;2023-04-24T13:34:21;2.03;;;0.98;;
42260;SDS011;27926;48.062;7.474;2023-04-24T13:36:46;4.18;;;0.90;;
42260;SDS011;27926;48.062;7.474;2023-04-24T13:39:11;4.03;;;1.20;;
42260;SDS011;27926;48.062;7.474;2023-04-24T13:41:36;1.60;;;0.57;;
42260;SDS011;27926;48.062;7.474;2023-04-24T13:44:00;2.67;;;0.50;;
42260;SDS011;27926;48.062;7.474;2023-04-24T13:46:25;1.65;;;0.70;;
42260;SDS011;27926;48.062;7.474;2023-04-24T13:48:50;4.18;;;1.02;;
42260;SDS011;27926;48.062;7.474;2023-04-24T13:51:15;4.28;;;0.80;;
42260;SDS011;27926;48.062;7.474;2023-04-24T13:53:39;2.95;;;0.93;;
42260;SDS011;27926;48.062;7.474;2023-04-24T13:56:04;1.45;;;0.63;;
42260;SDS011;27926;48.062;7.474;2023-04-24T13:58:29;3.35;;;1.00;;
42260;SDS011;27926;48.062;7.474;2023-04-24T14:00:54;1.20;;;0.70;;
42260;SDS011;27926;48.062;7.474;2023-04-24T14:03:19;2.13;;;1.00;;
42260;SDS011;27926;48.062;7.474;2023-04-24T14:05:44;2.65;;;0.90;;
42260;SDS011;27926;48.062;7.474;2023-04-24T14:08:08;10.60;;;1.45;;
42260;SDS011;27926;48.062;7.474;2023-04-24T14:10:33;6.18;;;1.25;;
42260;SDS011;27926;48.062;7.474;2023-04-24T14:12:57;4.40;;;1.25;;
42260;SDS011;27926;48.062;7.474;2023-04-24T14:15:22;6.28;;;1.00;;
42260;SDS011;27926;48.062;7.474;2023-04-24T14:17:47;1.38;;;0.80;;
42260;SDS011;27926;48.062;7.474;2023-04-24T14:20:12;1.75;;;1.15;;
42260;SDS011;27926;48.062;7.474;2023-04-24T14:22:38;3.22;;;1.05;;
42260;SDS011;27926;48.062;7.474;2023-04-24T14:27:29;0.98;;;0.70;;
42260;SDS011;27926;48.062;7.474;2023-04-24T14:29:54;2.35;;;1.25;;
42260;SDS011;27926;48.062;7.474;2023-04-24T14:32:18;6.28;;;1.25;;
42260;SDS011;27926;48.062;7.474;2023-04-24T14:34:45;4.18;;;0.80;;
42260;SDS011;27926;48.062;7.474;2023-04-24T14:37:09;3.33;;;0.90;;
42260;SDS011;27926;48.062;7.474;2023-04-24T14:39:34;1.83;;;0.98;;
42260;SDS011;27926;48.062;7.474;2023-04-24T14:41:58;2.25;;;0.93;;
42260;SDS011;27926;48.062;7.474;2023-04-24T14:44:23;4.23;;;1.17;;
42260;SDS011;27926;48.062;7.474;2023-04-24T14:46:48;1.17;;;0.63;;
42260;SDS011;27926;48.062;7.474;2023-04-24T14:49:13;8.63;;;1.17;;
42260;SDS011;27926;48.062;7.474;2023-04-24T14:51:38;2.15;;;0.98;;
42260;SDS011;27926;48.062;7.474;2023-04-24T14:54:03;4.03;;;1.30;;
42260;SDS011;27926;48.062;7.474;2023-04-24T14:56:27;8.63;;;1.23;;
42260;SDS011;27926;48.062;7.474;2023-04-24T14:58:52;4.90;;;0.95;;
42260;SDS011;27926;48.062;7.474;2023-04-24T15:01:17;7.28;;;1.15;;
42260;SDS011;27926;48.062;7.474;2023-04-24T15:03:41;8.30;;;1.08;;
42260;SDS011;27926;48.062;7.474;2023-04-24T15:06:06;2.28;;;1.15;;
42260;SDS011;27926;48.062;7.474;2023-04-24T15:08:31;0.95;;;0.88;;